This is the latest recevied weather packets stored in our database for station/object N4OOJ-13. If no packets are shown the sender has not sent any weather packets the latest 10 day(s).
| Time | Temp. | Humidity | Pressure | Rain* | Wind** | Luminosity | Snow |
|---|---|---|---|---|---|---|---|
| 1787413820 | 32.22° C | 67% | 1017.2 hPa | 0 mm | - | - | - |
| 1787413233 | 31.67° C | 67% | 1017.5 hPa | 0 mm | - | - | - |
| 1787412632 | 31.11° C | 75% | 1017.4 hPa | 0 mm | - | - | - |
| 1787412032 | 30° C | 74% | 1017.5 hPa | 0 mm | - | - | - |
| 1787411431 | 29.44° C | 79% | 1017.5 hPa | 0 mm | - | - | - |
| 1787410826 | 29.44° C | 79% | 1017.5 hPa | 0 mm | - | - | - |
| 1787410228 | 30° C | 77% | 1017.4 hPa | 0 mm | - | - | - |
| 1787409626 | 29.44° C | 80% | 1017.5 hPa | 0 mm | - | - | - |
| 1787409025 | 28.89° C | 82% | 1017.6 hPa | 0 mm | - | - | - |
| 1787408420 | 28.89° C | 82% | 1017.8 hPa | 0 mm | - | - | - |
| 1787407833 | 27.22° C | 89% | 1017.9 hPa | 0 mm | - | - | - |
| 1787407222 | 27.78° C | 87% | 1018 hPa | 0 mm | - | - | - |
| 1787406621 | 28.33° C | 86% | 1018 hPa | 0 mm | - | - | - |
| 1787406033 | 26.11° C | 91% | 1017.9 hPa | 0 mm | - | - | - |
| 1787405433 | 25.56° C | 96% | 1017.9 hPa | 0 mm | - | - | - |
| 1787404832 | 25° C | 98% | 1017.9 hPa | 0 mm | - | - | - |
| 1787404229 | 23.89° C | 99% | 1018 hPa | 0 mm | - | - | - |
| 1787403628 | 23.89° C | 99% | 1018 hPa | 0 mm | - | - | - |
| 1787403022 | 23.33° C | 99% | 1018 hPa | 0 mm | - | - | - |
| 1787402417 | 23.33° C | 99% | 1017.9 hPa | 0 mm | - | - | - |
| 1787401824 | 23.33° C | 99% | 1017.9 hPa | 0 mm | - | - | - |
| 1787401223 | 23.33° C | 99% | 1017.7 hPa | 0 mm | - | - | - |
| 1787400618 | 22.78° C | 99% | 1017.7 hPa | 0 mm | - | - | - |
| 1787400026 | 22.78° C | 99% | 1017.7 hPa | 0 mm | - | - | - |
| 1787399420 | 22.78° C | 99% | 1017.6 hPa | 0 mm | - | - | - |
* Rain latest hour (hover to see other rain measurements)
** Current wind speed in m/s (hover to see current wind gust speed)